Time;durP1;ratioP1;P1;durP2;ratioP2;P2;SDS_P1;SDS_P2;PMS_P1;PMS_P2;Temp;Humidity;BMP_temperature;BMP_pressure;BME280_temperature;BME280_humidity;BME280_pressure;Samples;Min_cycle;Max_cycle;Signal;HPM_P1;HPM_P2
2021/12/29 05:04:00;;;;;;;1.63;0.90;;;3.40;96.30;;;;;;4953988;29;20890;-78
2021/12/29 05:09:10;;;;;;;5.00;1.40;;;3.40;96.30;;;;;;4939793;29;20717;-78
2021/12/29 05:11:35;;;;;;;1.83;1.10;;;3.50;96.30;;;;;;4938277;29;20442;-78
2021/12/29 05:14:04;;;;;;;1.63;1.30;;;3.60;96.30;;;;;;4938976;29;20226;-77
2021/12/29 05:16:30;;;;;;;4.50;1.40;;;3.50;96.30;;;;;;4937776;29;20195;-75
2021/12/29 05:18:56;;;;;;;1.20;1.10;;;3.50;96.30;;;;;;4938495;29;20973;-75
2021/12/29 05:26:33;;;;;;;2.83;1.13;;;3.50;96.30;;;;;;5740816;23;20493;-78
2021/12/29 05:28:58;;;;;;;1.70;1.37;;;3.50;96.30;;;;;;4974728;28;20420;-78
2021/12/29 05:31:25;;;;;;;2.97;1.87;;;3.40;96.30;;;;;;4974585;28;20202;-79
2021/12/29 05:33:50;;;;;;;2.70;1.57;;;3.40;96.30;;;;;;4957135;28;20185;-78
2021/12/29 05:36:16;;;;;;;1.93;1.37;;;3.40;96.30;;;;;;4958752;28;20419;-78
2021/12/29 05:38:42;;;;;;;1.80;1.30;;;3.50;96.30;;;;;;4955119;29;20209;-78
2021/12/29 05:41:07;;;;;;;2.10;1.40;;;3.40;96.30;;;;;;4955030;29;20194;-78
2021/12/29 05:43:33;;;;;;;3.47;1.30;;;3.40;96.30;;;;;;4955091;29;20198;-77
2021/12/29 05:45:58;;;;;;;2.53;1.23;;;3.30;96.30;;;;;;4954799;29;20185;-78
2021/12/29 05:48:24;;;;;;;3.47;1.60;;;3.30;96.30;;;;;;4948063;28;20186;-78
2021/12/29 05:50:49;;;;;;;2.50;1.83;;;3.30;96.30;;;;;;4962797;28;20203;-77
2021/12/29 05:53:15;;;;;;;5.97;2.00;;;3.30;96.30;;;;;;4959294;29;20216;-78
2021/12/29 05:55:41;;;;;;;2.90;1.40;;;3.30;96.30;;;;;;4953397;29;20597;-78
2021/12/29 05:58:08;;;;;;;3.30;1.80;;;3.40;96.30;;;;;;4954250;28;20234;-79
2021/12/29 06:00:37;;;;;;;6.03;2.30;;;3.40;96.30;;;;;;4954463;28;20965;-79
2021/12/29 06:03:02;;;;;;;3.53;1.93;;;3.40;96.30;;;;;;4954861;28;20875;-78
2021/12/29 06:05:28;;;;;;;2.03;1.33;;;3.30;96.30;;;;;;4953511;29;20421;-78
2021/12/29 06:07:53;;;;;;;2.30;1.50;;;3.30;96.30;;;;;;4954376;29;20267;-79
2021/12/29 06:10:19;;;;;;;1.87;1.27;;;3.30;96.30;;;;;;4968969;28;20182;-78
2021/12/29 06:12:45;;;;;;;1.57;1.07;;;3.40;96.30;;;;;;4956688;28;20179;-78
2021/12/29 06:15:10;;;;;;;1.80;1.03;;;3.30;96.30;;;;;;4973947;28;20269;-78
2021/12/29 06:17:36;;;;;;;2.47;1.10;;;3.30;96.30;;;;;;4971570;28;20202;-79
2021/12/29 06:20:03;;;;;;;3.90;1.30;;;3.30;96.30;;;;;;4953120;29;20179;-78
2021/12/29 06:22:29;;;;;;;1.10;1.00;;;3.40;96.30;;;;;;4962099;28;20261;-78
2021/12/29 06:24:54;;;;;;;1.47;1.30;;;3.30;96.30;;;;;;4953133;29;20907;-77
2021/12/29 06:27:22;;;;;;;2.40;1.33;;;3.30;96.30;;;;;;4966068;28;20221;-78
2021/12/29 06:29:48;;;;;;;2.17;1.00;;;3.30;96.30;;;;;;4972666;28;20181;-78
2021/12/29 06:32:13;;;;;;;1.87;1.50;;;3.20;96.30;;;;;;4972743;28;20795;-77
2021/12/29 06:34:39;;;;;;;1.53;1.20;;;3.20;96.30;;;;;;4972681;28;20426;-77
2021/12/29 06:37:09;;;;;;;2.53;1.50;;;3.20;96.30;;;;;;4955953;28;20174;-77
2021/12/29 06:39:38;;;;;;;2.87;1.23;;;3.20;96.30;;;;;;4973156;28;20197;-78
2021/12/29 06:42:05;;;;;;;1.20;0.90;;;3.20;96.30;;;;;;4973694;28;20531;-77
2021/12/29 06:44:30;;;;;;;2.50;1.33;;;3.20;96.30;;;;;;4957310;28;20485;-78
2021/12/29 06:46:56;;;;;;;1.93;1.20;;;3.20;96.30;;;;;;4973249;28;20421;-76
2021/12/29 06:49:22;;;;;;;1.33;0.90;;;3.30;96.30;;;;;;4955740;28;20634;-77
2021/12/29 06:51:48;;;;;;;1.43;0.90;;;3.30;96.30;;;;;;4955841;28;20203;-76
2021/12/29 06:54:14;;;;;;;1.67;0.80;;;3.30;96.30;;;;;;4955788;28;20437;-76
2021/12/29 06:56:40;;;;;;;2.83;1.20;;;3.40;96.30;;;;;;4972693;28;20413;-78
2021/12/29 06:59:05;;;;;;;1.73;1.07;;;3.40;96.30;;;;;;4955815;28;20297;-77
2021/12/29 07:01:31;;;;;;;1.60;1.03;;;3.40;96.30;;;;;;4955703;28;20657;-76
2021/12/29 07:03:56;;;;;;;3.97;1.10;;;3.40;96.30;;;;;;4972729;28;20186;-76
2021/12/29 07:06:22;;;;;;;1.60;1.00;;;3.50;96.30;;;;;;4972460;28;20538;-78
2021/12/29 07:08:47;;;;;;;3.17;0.93;;;3.50;96.30;;;;;;4972774;28;20186;-75
2021/12/29 07:11:13;;;;;;;1.97;0.90;;;3.40;96.30;;;;;;4975705;28;20294;-74
2021/12/29 07:13:38;;;;;;;2.67;1.20;;;3.40;96.30;;;;;;4976838;28;20185;-75
2021/12/29 07:16:04;;;;;;;1.80;1.20;;;3.50;96.30;;;;;;4976293;28;20177;-74
2021/12/29 07:18:29;;;;;;;3.07;0.97;;;3.50;96.30;;;;;;4976322;28;20205;-75
2021/12/29 07:20:55;;;;;;;1.67;1.13;;;3.50;96.30;;;;;;4976652;28;20581;-79
2021/12/29 07:23:20;;;;;;;1.47;0.80;;;3.50;96.30;;;;;;4976698;28;20166;-77
2021/12/29 07:25:46;;;;;;;1.40;1.10;;;3.50;96.30;;;;;;4976947;28;20762;-79
2021/12/29 07:28:11;;;;;;;2.03;0.90;;;3.50;96.30;;;;;;4959543;28;20193;-78
2021/12/29 07:30:37;;;;;;;1.83;1.03;;;3.50;96.30;;;;;;4959695;28;20201;-79
2021/12/29 07:33:03;;;;;;;1.30;1.10;;;3.60;96.30;;;;;;4977504;28;20626;-79
2021/12/29 07:35:28;;;;;;;1.20;1.00;;;3.70;96.30;;;;;;4967105;28;20325;-79
2021/12/29 07:37:54;;;;;;;1.93;1.30;;;3.80;96.30;;;;;;4961063;28;20281;-79
2021/12/29 07:40:19;;;;;;;2.20;1.17;;;3.80;96.30;;;;;;4960669;28;20175;-79
2021/12/29 07:42:46;;;;;;;2.97;1.80;;;3.80;96.30;;;;;;4944313;28;20174;-77
2021/12/29 07:45:12;;;;;;;3.10;1.77;;;3.80;96.30;;;;;;4973711;28;20530;-81
2021/12/29 07:47:41;;;;;;;3.90;1.90;;;3.90;96.30;;;;;;4957581;28;20421;-78
2021/12/29 07:50:07;;;;;;;2.70;2.10;;;3.90;96.30;;;;;;4953595;28;20174;-78
2021/12/29 07:52:32;;;;;;;2.83;1.93;;;4.00;96.30;;;;;;4979178;28;20441;-78
2021/12/29 07:54:58;;;;;;;2.70;1.57;;;4.00;96.30;;;;;;4951850;28;20654;-78
2021/12/29 07:57:23;;;;;;;1.87;1.50;;;4.00;96.30;;;;;;4956620;28;20171;-77
2021/12/29 07:59:49;;;;;;;1.93;1.73;;;4.00;96.30;;;;;;4958853;28;20249;-78
2021/12/29 08:02:18;;;;;;;1.90;1.40;;;4.10;96.30;;;;;;4950015;28;20329;-77
2021/12/29 08:04:45;;;;;;;1.30;1.03;;;4.10;96.30;;;;;;4952113;28;20170;-77
2021/12/29 08:07:10;;;;;;;3.00;1.40;;;4.10;96.30;;;;;;4978325;28;20407;-78
2021/12/29 08:09:36;;;;;;;2.77;1.20;;;4.10;96.30;;;;;;4984090;28;20413;-78
2021/12/29 08:12:02;;;;;;;1.63;1.40;;;4.10;96.30;;;;;;4961099;28;20580;-78
2021/12/29 08:14:27;;;;;;;3.13;1.57;;;4.10;96.30;;;;;;4969438;28;20170;-78
2021/12/29 08:16:53;;;;;;;1.60;1.37;;;4.10;96.30;;;;;;4982329;28;20190;-79
2021/12/29 08:19:18;;;;;;;1.60;1.30;;;4.20;96.30;;;;;;4962948;28;20204;-79
2021/12/29 08:21:44;;;;;;;1.53;1.37;;;4.20;96.30;;;;;;4980998;28;20527;-77
2021/12/29 08:24:09;;;;;;;2.13;1.00;;;4.20;96.30;;;;;;4978921;28;20714;-79
2021/12/29 08:26:35;;;;;;;1.60;1.17;;;4.20;96.30;;;;;;4977983;28;20204;-80
2021/12/29 08:29:01;;;;;;;1.30;1.20;;;4.20;96.30;;;;;;4975666;28;20182;-79
2021/12/29 08:31:27;;;;;;;1.50;1.23;;;4.30;96.30;;;;;;4968096;28;20580;-78
2021/12/29 08:33:55;;;;;;;1.80;1.30;;;4.20;96.30;;;;;;4976655;28;20413;-79
2021/12/29 08:36:20;;;;;;;1.43;0.90;;;4.30;96.30;;;;;;4952779;28;20801;-77
2021/12/29 08:38:46;;;;;;;3.30;2.83;;;4.30;96.30;;;;;;4969925;28;20460;-79
2021/12/29 08:41:13;;;;;;;1.67;1.57;;;4.30;96.30;;;;;;4967135;28;20194;-80
2021/12/29 08:43:39;;;;;;;1.43;1.33;;;4.30;96.30;;;;;;4970695;28;20187;-80
2021/12/29 08:46:04;;;;;;;1.10;1.00;;;4.40;96.30;;;;;;4978737;28;20432;-80
2021/12/29 08:48:30;;;;;;;1.33;1.07;;;4.40;96.30;;;;;;4979751;28;20179;-80
2021/12/29 08:50:59;;;;;;;4.30;2.10;;;4.40;96.30;;;;;;4971490;28;20202;-81
2021/12/29 08:53:25;;;;;;;2.40;1.00;;;4.40;96.30;;;;;;4966531;28;20182;-81
2021/12/29 08:55:51;;;;;;;1.53;0.70;;;4.40;96.30;;;;;;4960345;28;20505;-78
2021/12/29 08:58:18;;;;;;;0.90;0.70;;;4.60;96.30;;;;;;4973200;28;20481;-78
2021/12/29 09:00:44;;;;;;;2.00;1.80;;;4.50;96.30;;;;;;4956996;28;20474;-77
2021/12/29 09:03:10;;;;;;;1.20;1.10;;;4.50;96.30;;;;;;4972456;28;20914;-77
2021/12/29 09:05:36;;;;;;;1.00;0.80;;;4.50;96.30;;;;;;4956026;28;20406;-78
2021/12/29 09:08:02;;;;;;;1.20;0.93;;;4.60;96.30;;;;;;4975021;28;20873;-79
2021/12/29 09:10:28;;;;;;;0.90;0.80;;;4.60;96.30;;;;;;4969394;28;20809;-81
2021/12/29 09:12:54;;;;;;;0.90;0.80;;;4.60;96.30;;;;;;4974019;28;20454;-80
2021/12/29 09:15:20;;;;;;;1.10;0.80;;;4.60;96.30;;;;;;4962693;28;20190;-81
2021/12/29 09:17:46;;;;;;;1.50;1.20;;;4.70;96.30;;;;;;4979712;28;20817;-81
2021/12/29 09:20:27;;;;;;;1.50;1.00;;;4.70;96.30;;;;;;4970410;28;20465;-81
2021/12/29 09:22:54;;;;;;;1.30;1.20;;;4.70;96.30;;;;;;4969026;28;20518;-80
2021/12/29 09:25:21;;;;;;;1.93;1.27;;;4.70;96.30;;;;;;4963759;28;20518;-81
2021/12/29 09:27:49;;;;;;;1.20;1.07;;;4.80;96.30;;;;;;4955817;28;20513;-79
2021/12/29 09:30:18;;;;;;;1.40;1.20;;;4.90;96.30;;;;;;4957265;28;20425;-78
2021/12/29 09:32:44;;;;;;;1.57;1.07;;;4.90;96.30;;;;;;4978529;28;20424;-79
2021/12/29 09:35:09;;;;;;;2.60;1.57;;;4.90;96.30;;;;;;4977731;28;20427;-79
2021/12/29 09:37:35;;;;;;;1.20;1.10;;;4.90;96.30;;;;;;4963604;28;20198;-80
2021/12/29 09:40:00;;;;;;;1.37;1.27;;;4.90;96.30;;;;;;4965029;28;20653;-80
2021/12/29 09:42:26;;;;;;;1.53;1.43;;;5.00;96.30;;;;;;4959144;28;20202;-80
2021/12/29 09:44:52;;;;;;;1.83;1.50;;;5.00;96.30;;;;;;4966022;28;20194;-77
2021/12/29 09:47:19;;;;;;;1.10;0.93;;;5.00;96.30;;;;;;4972429;28;20174;-77
2021/12/29 09:49:45;;;;;;;1.63;1.40;;;5.10;96.30;;;;;;4962355;28;20427;-77
2021/12/29 09:52:10;;;;;;;1.10;0.90;;;5.20;96.30;;;;;;4954738;29;20529;-77
2021/12/29 09:54:36;;;;;;;1.63;1.17;;;5.20;96.30;;;;;;4968343;28;20468;-73
2021/12/29 09:57:03;;;;;;;1.30;0.93;;;5.20;96.30;;;;;;4963241;28;20254;-75
2021/12/29 09:59:29;;;;;;;1.30;1.17;;;5.20;96.30;;;;;;4973637;28;20197;-77
2021/12/29 10:01:55;;;;;;;1.97;1.40;;;5.30;96.30;;;;;;4973942;28;20819;-74
2021/12/29 10:04:21;;;;;;;1.00;0.70;;;5.30;96.30;;;;;;4973785;28;20261;-75
2021/12/29 10:06:47;;;;;;;1.00;0.70;;;5.40;96.30;;;;;;4965354;28;20500;-79
2021/12/29 10:09:14;;;;;;;1.47;1.30;;;5.40;96.30;;;;;;4956799;28;20182;-76
2021/12/29 10:11:41;;;;;;;0.90;0.80;;;5.40;96.30;;;;;;4971158;28;20544;-76
2021/12/29 10:14:13;;;;;;;1.20;1.00;;;5.50;96.30;;;;;;4967588;28;20927;-75
2021/12/29 10:16:39;;;;;;;1.20;0.90;;;5.50;96.30;;;;;;4970435;28;20939;-79
2021/12/29 10:19:12;;;;;;;2.03;1.10;;;5.60;96.30;;;;;;4951550;28;20886;-76
2021/12/29 10:21:47;;;;;;;1.20;0.80;;;5.60;96.30;;;;;;4970459;28;20440;-79
2021/12/29 10:24:15;;;;;;;1.30;1.10;;;5.60;96.30;;;;;;4972552;28;20496;-79
2021/12/29 10:26:44;;;;;;;1.30;1.00;;;5.70;96.30;;;;;;4963902;28;20457;-79
2021/12/29 10:29:14;;;;;;;1.10;0.80;;;5.70;96.30;;;;;;4970329;28;20418;-79
2021/12/29 10:31:42;;;;;;;1.00;0.80;;;5.70;96.30;;;;;;4965853;28;20441;-78
2021/12/29 10:34:12;;;;;;;1.10;0.70;;;5.80;96.30;;;;;;4969416;28;20512;-76
2021/12/29 10:36:43;;;;;;;1.00;0.70;;;5.80;96.30;;;;;;4961412;28;20480;-79
2021/12/29 10:39:15;;;;;;;1.27;0.90;;;5.90;96.30;;;;;;4963334;28;20491;-77
2021/12/29 10:41:52;;;;;;;0.90;0.77;;;5.90;96.30;;;;;;4952247;28;20429;-78
2021/12/29 10:44:36;;;;;;;1.00;0.80;;;5.90;96.30;;;;;;4961004;28;20997;-76
2021/12/29 10:47:22;;;;;;;1.00;0.73;;;5.90;96.30;;;;;;4964778;28;20920;-75
2021/12/29 10:49:59;;;;;;;0.90;0.60;;;6.00;96.30;;;;;;4963084;28;20411;-76
2021/12/29 10:52:35;;;;;;;0.90;0.70;;;6.00;96.30;;;;;;4972766;28;20492;-75
2021/12/29 10:55:05;;;;;;;1.20;1.10;;;6.00;96.30;;;;;;4972994;28;20408;-77
2021/12/29 10:57:31;;;;;;;1.40;1.00;;;6.00;96.30;;;;;;4972817;28;20409;-79
2021/12/29 10:59:58;;;;;;;0.90;0.77;;;6.00;96.30;;;;;;4955849;28;20418;-75
2021/12/29 11:02:32;;;;;;;1.50;1.03;;;6.00;96.30;;;;;;4950240;28;20195;-76
2021/12/29 11:05:01;;;;;;;1.10;0.90;;;6.10;96.30;;;;;;4955161;28;20449;-76
2021/12/29 11:07:28;;;;;;;1.50;1.00;;;6.00;96.30;;;;;;4969639;28;20898;-76
2021/12/29 11:09:55;;;;;;;1.10;0.90;;;6.00;96.30;;;;;;4936639;29;20421;-77
2021/12/29 11:12:23;;;;;;;4.37;1.17;;;6.10;96.30;;;;;;4936466;29;20438;-77
2021/12/29 11:14:53;;;;;;;1.40;1.20;;;6.10;96.30;;;;;;4964695;28;20485;-79
2021/12/29 11:17:25;;;;;;;1.77;1.20;;;6.10;96.30;;;;;;4949356;28;20445;-79
2021/12/29 11:19:59;;;;;;;2.07;1.47;;;6.10;96.30;;;;;;4959775;28;20425;-80
2021/12/29 11:22:27;;;;;;;2.87;1.43;;;6.20;96.30;;;;;;4952566;28;20918;-78
2021/12/29 11:24:56;;;;;;;3.00;1.40;;;6.20;96.30;;;;;;4950930;28;20525;-78
2021/12/29 11:27:23;;;;;;;1.70;1.53;;;6.20;96.30;;;;;;4979993;28;20569;-79
2021/12/29 11:29:57;;;;;;;1.30;1.20;;;6.20;96.30;;;;;;4985889;28;20468;-78
2021/12/29 11:32:43;;;;;;;1.40;1.30;;;6.20;96.30;;;;;;4980127;28;21004;-78
2021/12/29 11:35:09;;;;;;;1.70;1.23;;;6.10;96.30;;;;;;4980471;28;20439;-78
2021/12/29 11:37:37;;;;;;;1.23;0.90;;;6.10;96.30;;;;;;4975919;28;20491;-78
2021/12/29 11:40:05;;;;;;;1.30;1.17;;;6.10;96.30;;;;;;4983123;28;20174;-79
2021/12/29 13:46:08;;;;;;;1.40;1.10;;;6.20;96.30;;;;;;5391847;23;21546;-78
2021/12/29 13:48:35;;;;;;;1.20;1.10;;;6.20;96.30;;;;;;4951165;29;21029;-78
2021/12/29 13:51:07;;;;;;;1.80;1.20;;;6.20;96.30;;;;;;4954678;28;20577;-78
2021/12/29 13:53:35;;;;;;;1.17;0.70;;;6.10;96.30;;;;;;4952779;29;20435;-77
2021/12/29 13:56:13;;;;;;;1.00;0.80;;;6.20;96.30;;;;;;4946288;29;20449;-79
2021/12/29 13:58:41;;;;;;;1.10;0.70;;;6.10;96.30;;;;;;4935579;29;20971;-76
2021/12/29 14:01:07;;;;;;;2.07;0.60;;;6.00;96.30;;;;;;4953205;29;20426;-79
2021/12/29 14:03:34;;;;;;;1.83;0.70;;;6.10;96.30;;;;;;4953637;29;20450;-79
2021/12/29 14:06:05;;;;;;;2.00;0.90;;;6.10;96.30;;;;;;4953231;29;20419;-79
2021/12/29 14:08:32;;;;;;;1.23;0.83;;;6.00;96.30;;;;;;4953643;29;20865;-79
2021/12/29 14:11:01;;;;;;;1.37;0.73;;;5.90;96.30;;;;;;4953709;29;20478;-78
2021/12/29 14:13:34;;;;;;;1.47;0.90;;;6.00;96.30;;;;;;4953443;29;20434;-78
2021/12/29 15:59:40;;;;;;;3.50;1.40;;;5.70;96.30;;;;;;5507833;23;20516;-75
2021/12/29 16:02:07;;;;;;;2.33;1.50;;;5.70;96.30;;;;;;4956371;29;20946;-77
2021/12/29 16:04:33;;;;;;;3.40;1.40;;;5.60;96.30;;;;;;4956617;29;20596;-75
2021/12/29 16:07:00;;;;;;;1.70;1.60;;;5.60;96.30;;;;;;4955801;29;21005;-75
2021/12/29 16:09:25;;;;;;;1.93;1.70;;;5.60;96.30;;;;;;4956572;29;20410;-74
2021/12/29 16:11:52;;;;;;;1.87;1.67;;;5.60;96.30;;;;;;4956499;29;20418;-75
2021/12/29 16:14:17;;;;;;;4.90;2.07;;;5.50;96.30;;;;;;4956258;29;20178;-76
2021/12/29 16:16:43;;;;;;;8.30;5.20;;;5.50;96.30;;;;;;4938450;29;20509;-76
2021/12/29 16:19:09;;;;;;;3.93;3.30;;;5.50;96.30;;;;;;4956010;29;20199;-78
2021/12/29 16:21:38;;;;;;;5.23;1.43;;;5.50;96.30;;;;;;4956454;29;20190;-77
2021/12/29 16:24:05;;;;;;;7.67;5.47;;;5.50;96.30;;;;;;4956015;29;20201;-75
2021/12/29 16:26:31;;;;;;;12.40;8.97;;;5.50;96.30;;;;;;4955419;29;20434;-78
2021/12/29 16:28:57;;;;;;;13.93;10.50;;;5.50;96.30;;;;;;4956276;29;20411;-76
2021/12/29 16:31:22;;;;;;;3.87;3.47;;;5.50;96.30;;;;;;4955900;29;20521;-75
2021/12/29 16:33:48;;;;;;;3.50;3.10;;;5.50;96.30;;;;;;4955897;29;20614;-75
2021/12/29 16:36:15;;;;;;;1.63;1.53;;;5.50;96.30;;;;;;4938023;29;20235;-76
2021/12/29 16:38:41;;;;;;;2.47;1.67;;;5.50;96.30;;;;;;4938657;29;20601;-76
2021/12/29 16:41:07;;;;;;;1.60;1.50;;;5.60;96.30;;;;;;4955951;29;20403;-77
2021/12/29 16:43:33;;;;;;;1.70;1.60;;;5.50;96.30;;;;;;4955190;28;20171;-75
2021/12/29 16:45:58;;;;;;;2.40;1.80;;;5.50;96.30;;;;;;4937893;29;20175;-73
2021/12/29 16:48:24;;;;;;;2.03;1.83;;;5.50;96.30;;;;;;4955612;29;20437;-72
2021/12/29 16:50:50;;;;;;;2.20;2.00;;;5.50;96.30;;;;;;4955667;29;20205;-72
2021/12/29 16:53:19;;;;;;;2.10;1.90;;;5.50;96.30;;;;;;4938279;29;20861;-73
2021/12/29 16:55:45;;;;;;;1.70;1.50;;;5.50;96.30;;;;;;4955072;29;20182;-71
2021/12/29 16:58:11;;;;;;;1.57;1.47;;;5.60;96.30;;;;;;4955331;29;20468;-72
2021/12/29 17:00:37;;;;;;;2.17;1.43;;;5.50;96.30;;;;;;4955342;29;20426;-72
2021/12/29 17:03:04;;;;;;;1.73;1.40;;;5.50;96.30;;;;;;4955398;29;20230;-73
2021/12/29 17:05:31;;;;;;;2.13;1.60;;;5.50;96.30;;;;;;4955240;29;20709;-73
2021/12/29 17:07:56;;;;;;;2.20;1.60;;;5.50;96.30;;;;;;4954738;29;20903;-72
2021/12/29 17:10:22;;;;;;;2.70;1.60;;;5.50;96.30;;;;;;4955082;29;20474;-75
2021/12/29 17:12:47;;;;;;;2.03;1.70;;;5.50;96.30;;;;;;4955390;29;20175;-73
2021/12/29 17:15:15;;;;;;;3.83;1.80;;;5.40;96.30;;;;;;4955115;29;20528;-74
2021/12/29 17:17:40;;;;;;;1.60;1.50;;;5.40;96.30;;;;;;4954480;29;20536;-75
2021/12/29 17:20:07;;;;;;;1.80;1.50;;;5.40;96.30;;;;;;4937861;29;20470;-74
2021/12/29 17:22:33;;;;;;;1.67;1.57;;;5.40;96.30;;;;;;4954949;29;20175;-75
2021/12/29 17:24:59;;;;;;;2.47;2.10;;;5.40;96.30;;;;;;4955051;29;20881;-75
2021/12/29 17:27:25;;;;;;;2.60;2.10;;;5.40;96.30;;;;;;4954548;29;20426;-77
2021/12/29 17:29:51;;;;;;;2.07;1.50;;;5.40;96.30;;;;;;4954976;29;20417;-74
2021/12/29 17:32:16;;;;;;;1.50;1.40;;;5.50;96.30;;;;;;4954872;29;20183;-79
2021/12/29 17:34:42;;;;;;;2.07;1.90;;;5.40;96.30;;;;;;4950585;29;20207;-75
2021/12/29 17:37:07;;;;;;;2.20;2.00;;;5.40;96.30;;;;;;4935089;29;20251;-75
2021/12/29 17:39:34;;;;;;;6.10;4.30;;;5.40;96.30;;;;;;4935187;29;20243;-77
2021/12/29 17:41:59;;;;;;;2.23;2.03;;;5.40;96.30;;;;;;4918537;29;20176;-78
2021/12/29 17:44:25;;;;;;;5.80;3.50;;;5.40;96.30;;;;;;4927621;29;20935;-75
2021/12/29 17:46:51;;;;;;;8.77;7.90;;;5.40;96.30;;;;;;4936828;29;20195;-75
2021/12/29 17:49:16;;;;;;;12.63;10.60;;;5.40;96.30;;;;;;4937437;29;20659;-75
2021/12/29 17:51:42;;;;;;;8.47;6.50;;;5.40;96.30;;;;;;4954556;29;20411;-76
2021/12/29 17:54:08;;;;;;;26.50;15.80;;;5.40;96.30;;;;;;4953997;28;20211;-78
2021/12/29 17:56:37;;;;;;;9.80;6.90;;;5.40;96.30;;;;;;4936174;29;20199;-78
2021/12/29 17:59:06;;;;;;;5.67;3.80;;;5.40;96.30;;;;;;4937434;29;20466;-77
2021/12/29 18:01:32;;;;;;;5.60;2.80;;;5.30;96.30;;;;;;4937403;29;20519;-76
2021/12/29 18:03:57;;;;;;;7.97;5.57;;;5.30;96.30;;;;;;4954943;29;20493;-76
2021/12/29 18:06:23;;;;;;;4.80;4.40;;;5.30;96.30;;;;;;4955271;29;20600;-80
2021/12/29 18:08:49;;;;;;;4.67;3.77;;;5.30;96.30;;;;;;4938930;29;20179;-80
2021/12/29 18:11:15;;;;;;;3.63;3.27;;;5.30;96.30;;;;;;4956696;29;20178;-80
2021/12/29 18:13:41;;;;;;;3.93;3.30;;;5.30;96.30;;;;;;4938903;29;20461;-80
2021/12/29 18:16:08;;;;;;;3.80;3.30;;;5.30;96.30;;;;;;4938201;29;20422;-80
2021/12/29 18:18:33;;;;;;;4.27;3.30;;;5.30;96.30;;;;;;4937575;29;20525;-79
2021/12/29 18:20:59;;;;;;;4.47;2.97;;;5.30;96.30;;;;;;4954288;29;20497;-77
2021/12/29 18:23:25;;;;;;;4.30;3.90;;;5.30;96.30;;;;;;4954367;29;20167;-77
2021/12/29 18:25:51;;;;;;;3.30;3.00;;;5.30;96.30;;;;;;4953536;29;20929;-77
2021/12/29 18:28:18;;;;;;;4.80;3.87;;;5.30;96.30;;;;;;4954137;29;20636;-77
2021/12/29 18:30:44;;;;;;;8.60;5.70;;;5.30;96.30;;;;;;4954040;29;20261;-76
2021/12/29 18:33:10;;;;;;;9.73;7.67;;;5.40;96.30;;;;;;4954056;29;20414;-76
2021/12/29 18:35:36;;;;;;;3.90;3.40;;;5.30;96.30;;;;;;4936536;29;20423;-76
2021/12/29 18:38:01;;;;;;;4.30;3.63;;;5.30;96.30;;;;;;4954262;29;20758;-80
2021/12/29 18:40:27;;;;;;;3.80;3.40;;;5.30;96.30;;;;;;4937736;29;20789;-78
2021/12/29 18:42:53;;;;;;;2.30;2.10;;;5.30;96.30;;;;;;4937408;29;20262;-80
2021/12/29 18:45:19;;;;;;;3.30;2.83;;;5.20;96.30;;;;;;4954573;29;20527;-81
2021/12/29 18:47:46;;;;;;;3.70;2.87;;;5.20;96.30;;;;;;4936888;29;20191;-81
2021/12/29 18:50:14;;;;;;;5.27;2.67;;;5.20;96.30;;;;;;4954497;29;20193;-79
2021/12/29 18:52:40;;;;;;;3.13;2.70;;;5.20;96.30;;;;;;4954955;29;20446;-77
2021/12/29 18:55:08;;;;;;;3.10;2.63;;;5.30;96.30;;;;;;4954128;29;20505;-77
2021/12/29 18:57:34;;;;;;;2.70;2.50;;;5.30;96.30;;;;;;4953640;29;20441;-78
2021/12/29 19:00:00;;;;;;;2.90;2.30;;;5.20;96.30;;;;;;4953706;29;20834;-80
2021/12/29 19:02:27;;;;;;;14.10;12.10;;;5.30;96.30;;;;;;4937644;29;20446;-78
2021/12/29 19:04:52;;;;;;;7.20;6.50;;;5.30;96.30;;;;;;4956163;29;20175;-77
2021/12/29 19:07:18;;;;;;;6.60;6.00;;;5.30;96.30;;;;;;4958569;28;21001;-78
2021/12/29 19:09:44;;;;;;;4.47;4.07;;;5.40;96.30;;;;;;4961182;29;20804;-80
2021/12/29 19:12:09;;;;;;;4.30;3.90;;;5.30;96.30;;;;;;4945123;29;20183;-78
2021/12/29 19:14:37;;;;;;;6.27;5.67;;;5.30;96.30;;;;;;4944794;29;20185;-79
2021/12/29 19:17:05;;;;;;;7.37;6.67;;;5.30;96.30;;;;;;4943652;29;20289;-79
2021/12/29 19:19:36;;;;;;;6.97;4.30;;;5.30;96.30;;;;;;4944273;29;20469;-78
2021/12/29 19:22:07;;;;;;;8.33;7.20;;;5.20;96.30;;;;;;4944360;29;20517;-79
2021/12/29 19:24:33;;;;;;;4.97;4.47;;;5.20;96.30;;;;;;4944991;29;20418;-79
2021/12/29 19:26:59;;;;;;;3.17;2.93;;;5.20;96.30;;;;;;4961256;29;20934;-78
2021/12/29 19:29:24;;;;;;;5.70;3.30;;;5.20;96.30;;;;;;4944670;29;20422;-79
2021/12/29 19:31:55;;;;;;;2.67;2.07;;;5.30;96.30;;;;;;4962974;29;20182;-78
2021/12/29 19:34:22;;;;;;;3.67;2.67;;;5.20;96.30;;;;;;4943290;29;20179;-77
2021/12/29 19:36:48;;;;;;;2.30;2.10;;;5.30;96.30;;;;;;4926399;29;20757;-79
2021/12/29 19:39:14;;;;;;;4.70;3.47;;;5.20;96.30;;;;;;4922919;29;20465;-80
2021/12/29 19:41:40;;;;;;;7.10;5.40;;;5.20;96.30;;;;;;4922649;29;20180;-80
2021/12/29 19:44:05;;;;;;;4.93;3.70;;;5.20;96.30;;;;;;4922580;29;20426;-79
2021/12/29 19:46:33;;;;;;;3.97;3.30;;;5.20;96.30;;;;;;4939674;29;20270;-80
2021/12/29 19:48:58;;;;;;;2.93;2.50;;;5.20;96.30;;;;;;4922507;29;20271;-80
2021/12/29 19:51:24;;;;;;;5.20;2.07;;;5.20;96.30;;;;;;4922762;29;20923;-78
2021/12/29 19:53:49;;;;;;;3.57;2.50;;;5.20;96.30;;;;;;4939828;29;20552;-79
2021/12/29 19:56:15;;;;;;;3.30;3.00;;;5.20;96.30;;;;;;4922252;29;20209;-79
2021/12/29 19:58:42;;;;;;;2.80;2.60;;;5.20;96.30;;;;;;4922967;29;20702;-79
2021/12/29 20:01:09;;;;;;;3.00;2.70;;;5.10;96.30;;;;;;4948940;29;20265;-80
2021/12/29 20:03:35;;;;;;;3.50;3.20;;;5.00;96.30;;;;;;4942516;29;20414;-80
2021/12/29 20:13:46;;;;;;;3.50;3.20;;;4.80;96.30;;;;;;5511859;23;20495;-79
2021/12/29 20:16:15;;;;;;;4.60;4.10;;;4.80;96.30;;;;;;4960900;28;20426;-80
2021/12/29 20:18:42;;;;;;;3.33;3.00;;;4.70;96.30;;;;;;4960758;28;20304;-79
2021/12/29 20:21:09;;;;;;;58.23;31.90;;;4.70;96.30;;;;;;4978130;28;20785;-79
2021/12/29 20:23:35;;;;;;;32.73;15.93;;;4.80;96.30;;;;;;4959479;28;20509;-78
2021/12/29 20:26:01;;;;;;;6.70;6.10;;;4.70;96.30;;;;;;4975147;28;21197;-77
2021/12/29 20:28:27;;;;;;;5.10;4.57;;;4.60;96.30;;;;;;4958665;28;20186;-78
2021/12/29 20:30:53;;;;;;;4.80;3.00;;;4.60;96.30;;;;;;4975702;28;20446;-77
2021/12/29 20:33:21;;;;;;;9.67;8.70;;;4.50;96.30;;;;;;4975685;28;20421;-77
2021/12/29 20:35:46;;;;;;;12.13;10.30;;;4.40;96.30;;;;;;4975272;28;20253;-77
2021/12/29 20:38:12;;;;;;;10.73;9.63;;;4.40;96.30;;;;;;4979220;28;20461;-78
2021/12/29 20:40:38;;;;;;;6.17;5.57;;;4.40;96.30;;;;;;4959170;28;20563;-78
2021/12/29 20:43:03;;;;;;;3.47;2.80;;;4.40;96.30;;;;;;4958015;28;20182;-78
2021/12/29 20:45:30;;;;;;;4.43;3.00;;;4.50;96.30;;;;;;4975646;28;20521;-77
2021/12/29 20:47:57;;;;;;;5.97;3.57;;;4.60;96.30;;;;;;4974984;28;20688;-78
2021/12/29 20:50:23;;;;;;;3.03;2.70;;;4.70;96.30;;;;;;4975350;28;20421;-78
2021/12/29 20:52:49;;;;;;;4.30;3.90;;;4.60;96.30;;;;;;4958249;28;20424;-77
2021/12/29 20:55:16;;;;;;;3.80;3.50;;;4.60;96.30;;;;;;4957866;28;20634;-77
2021/12/29 20:57:42;;;;;;;3.63;3.27;;;4.70;96.30;;;;;;4974905;28;20516;-78
2021/12/29 21:00:11;;;;;;;4.30;3.90;;;4.70;96.30;;;;;;4977008;28;20450;-79
2021/12/29 21:02:36;;;;;;;5.27;3.80;;;4.80;96.30;;;;;;4957844;29;20201;-78
2021/12/29 21:05:05;;;;;;;3.43;3.13;;;4.80;96.30;;;;;;4940558;29;20866;-80
2021/12/29 21:07:34;;;;;;;3.10;2.70;;;4.80;96.30;;;;;;4938609;29;20221;-77
2021/12/29 21:09:59;;;;;;;4.83;4.33;;;4.80;96.30;;;;;;4955788;29;20418;-77
2021/12/29 21:12:24;;;;;;;7.57;6.80;;;4.80;96.30;;;;;;4955678;29;20426;-77
2021/12/29 21:14:50;;;;;;;5.40;4.90;;;4.80;96.30;;;;;;4938580;29;20528;-77
2021/12/29 21:17:15;;;;;;;4.43;3.70;;;4.90;96.30;;;;;;4937787;29;20194;-77
2021/12/29 21:19:41;;;;;;;31.23;20.57;;;4.90;96.30;;;;;;4955517;29;20265;-78
2021/12/29 21:22:07;;;;;;;14.30;9.90;;;4.90;96.30;;;;;;4955746;29;20171;-77
2021/12/29 21:24:34;;;;;;;13.93;10.73;;;4.90;96.30;;;;;;4955376;29;20179;-77
2021/12/29 21:26:59;;;;;;;8.17;7.03;;;5.00;96.30;;;;;;4954658;29;20437;-77
2021/12/29 21:29:25;;;;;;;11.60;9.57;;;5.10;96.30;;;;;;4955361;28;20415;-77
2021/12/29 21:31:50;;;;;;;14.17;8.27;;;5.10;96.30;;;;;;4943509;28;20200;-77
2021/12/29 21:34:16;;;;;;;7.33;6.50;;;5.00;96.30;;;;;;4967204;28;20665;-77
2021/12/29 21:36:41;;;;;;;12.40;8.37;;;5.00;96.30;;;;;;4956766;28;20202;-77
2021/12/29 21:39:07;;;;;;;20.43;12.40;;;4.90;96.30;;;;;;4957319;28;20293;-77
2021/12/29 21:41:33;;;;;;;4.07;3.17;;;4.90;96.30;;;;;;4974319;28;20182;-77
2021/12/29 21:43:59;;;;;;;3.07;2.77;;;4.90;96.30;;;;;;4974435;28;20268;-76
2021/12/29 21:46:26;;;;;;;3.70;2.30;;;4.90;96.30;;;;;;4956551;28;20529;-77
2021/12/29 21:48:55;;;;;;;7.47;4.97;;;4.90;96.30;;;;;;4974505;28;20181;-76
2021/12/29 21:51:21;;;;;;;16.80;11.67;;;4.80;96.30;;;;;;4974213;28;20508;-76
2021/12/29 21:53:46;;;;;;;6.83;4.50;;;4.80;96.30;;;;;;4974340;28;20840;-78
2021/12/29 21:56:12;;;;;;;10.40;6.80;;;4.80;96.30;;;;;;4956390;28;20224;-78
2021/12/29 21:58:38;;;;;;;3.30;2.73;;;4.80;96.30;;;;;;4956679;28;20694;-76